Terminal Aerodrome Forecast
Issued by NWS Boise, ID

Home | Current Version | Previous Version | Text Only | Print | Product List | Glossary On
Versions: 1 2 3 4 5 6 7 8 9 10 11 12 13 14 15 16 17 18 19 20 21 22 23 24 25 26 27 28 29 30 31 32 33 34
000
FTUS45 KBOI 192339
TAFBNO
TAF
KBNO 192339Z 2000/2024 20010KT P6SM -RA FEW025 BKN040
     FM200300 VRB05KT 5SM -SN BR OVC030
     FM201700 13010KT 6SM -RA BR OVC015=

USA.gov is the U.S. government's official web portal to all federal, state and local government web resources and services.